sensor_id;sensor_type;location;lat;lon;timestamp;temperature;humidity
44729;DHT22;30457;53.590;9.922;2022-12-18T00:02:40;-0.80;58.90
44729;DHT22;30457;53.590;9.922;2022-12-18T00:07:06;-0.80;58.70
44729;DHT22;30457;53.590;9.922;2022-12-18T00:11:31;-0.80;58.60
44729;DHT22;30457;53.590;9.922;2022-12-18T00:16:06;-0.90;58.50
44729;DHT22;30457;53.590;9.922;2022-12-18T00:20:39;-0.90;58.70
44729;DHT22;30457;53.590;9.922;2022-12-18T00:25:05;-1.00;58.70
44729;DHT22;30457;53.590;9.922;2022-12-18T00:29:30;-1.00;58.70
44729;DHT22;30457;53.590;9.922;2022-12-18T00:33:57;-1.00;58.80
44729;DHT22;30457;53.590;9.922;2022-12-18T00:38:23;-1.10;59.00
44729;DHT22;30457;53.590;9.922;2022-12-18T00:42:49;-1.10;59.00
44729;DHT22;30457;53.590;9.922;2022-12-18T00:47:20;-1.10;59.00
44729;DHT22;30457;53.590;9.922;2022-12-18T00:51:46;-1.10;58.80
44729;DHT22;30457;53.590;9.922;2022-12-18T00:56:12;-1.10;58.80
44729;DHT22;30457;53.590;9.922;2022-12-18T01:00:38;-1.10;58.90
44729;DHT22;30457;53.590;9.922;2022-12-18T01:05:04;-1.10;59.10
44729;DHT22;30457;53.590;9.922;2022-12-18T01:09:29;-1.20;59.10
44729;DHT22;30457;53.590;9.922;2022-12-18T01:13:55;-1.20;59.20
44729;DHT22;30457;53.590;9.922;2022-12-18T01:18:21;-1.20;59.00
44729;DHT22;30457;53.590;9.922;2022-12-18T01:22:46;-1.20;59.00
44729;DHT22;30457;53.590;9.922;2022-12-18T01:27:12;-1.20;59.00
44729;DHT22;30457;53.590;9.922;2022-12-18T01:31:39;-1.20;58.90
44729;DHT22;30457;53.590;9.922;2022-12-18T01:36:04;-1.30;58.90
44729;DHT22;30457;53.590;9.922;2022-12-18T01:40:30;-1.30;59.10
44729;DHT22;30457;53.590;9.922;2022-12-18T01:45:00;-1.30;59.30
44729;DHT22;30457;53.590;9.922;2022-12-18T01:49:26;-1.30;59.40
44729;DHT22;30457;53.590;9.922;2022-12-18T01:53:52;-1.30;59.40
44729;DHT22;30457;53.590;9.922;2022-12-18T01:58:18;-1.20;59.60
44729;DHT22;30457;53.590;9.922;2022-12-18T02:02:46;-1.20;59.60
44729;DHT22;30457;53.590;9.922;2022-12-18T02:07:35;-1.20;59.60
44729;DHT22;30457;53.590;9.922;2022-12-18T02:12:24;-1.20;59.50
44729;DHT22;30457;53.590;9.922;2022-12-18T02:16:59;-1.20;59.40
44729;DHT22;30457;53.590;9.922;2022-12-18T02:21:35;-1.20;59.40
44729;DHT22;30457;53.590;9.922;2022-12-18T02:26:15;-1.20;59.40
44729;DHT22;30457;53.590;9.922;2022-12-18T02:30:44;-1.30;59.30
44729;DHT22;30457;53.590;9.922;2022-12-18T02:35:15;-1.30;59.20
44729;DHT22;30457;53.590;9.922;2022-12-18T02:39:44;-1.30;59.20
44729;DHT22;30457;53.590;9.922;2022-12-18T02:44:13;-1.30;59.20
44729;DHT22;30457;53.590;9.922;2022-12-18T02:48:40;-1.30;59.10
44729;DHT22;30457;53.590;9.922;2022-12-18T02:53:51;-1.40;59.00
44729;DHT22;30457;53.590;9.922;2022-12-18T03:03:12;-1.40;58.90
44729;DHT22;30457;53.590;9.922;2022-12-18T03:07:48;-1.40;58.70
44729;DHT22;30457;53.590;9.922;2022-12-18T03:12:29;-1.50;58.60
44729;DHT22;30457;53.590;9.922;2022-12-18T03:17:00;-1.50;58.50
44729;DHT22;30457;53.590;9.922;2022-12-18T03:21:32;-1.60;58.50
44729;DHT22;30457;53.590;9.922;2022-12-18T03:26:03;-1.60;58.60
44729;DHT22;30457;53.590;9.922;2022-12-18T03:30:32;-1.70;58.40
44729;DHT22;30457;53.590;9.922;2022-12-18T03:35:03;-1.70;58.40
44729;DHT22;30457;53.590;9.922;2022-12-18T03:39:33;-1.70;58.30
44729;DHT22;30457;53.590;9.922;2022-12-18T03:48:44;-1.80;58.40
44729;DHT22;30457;53.590;9.922;2022-12-18T03:58:24;-1.90;58.40
44729;DHT22;30457;53.590;9.922;2022-12-18T04:02:59;-1.90;58.50
44729;DHT22;30457;53.590;9.922;2022-12-18T04:07:33;-1.90;58.50
44729;DHT22;30457;53.590;9.922;2022-12-18T04:11:59;-2.00;58.50
44729;DHT22;30457;53.590;9.922;2022-12-18T04:16:25;-2.00;58.40
44729;DHT22;30457;53.590;9.922;2022-12-18T04:20:54;-2.00;58.40
44729;DHT22;30457;53.590;9.922;2022-12-18T04:25:21;-2.10;58.40
44729;DHT22;30457;53.590;9.922;2022-12-18T04:29:57;-2.10;58.30
44729;DHT22;30457;53.590;9.922;2022-12-18T04:34:22;-2.10;58.50
44729;DHT22;30457;53.590;9.922;2022-12-18T04:38:51;-2.10;58.60
44729;DHT22;30457;53.590;9.922;2022-12-18T04:43:17;-2.20;58.50
44729;DHT22;30457;53.590;9.922;2022-12-18T04:47:43;-2.10;58.40
44729;DHT22;30457;53.590;9.922;2022-12-18T04:52:09;-2.20;59.00
44729;DHT22;30457;53.590;9.922;2022-12-18T04:56:34;-2.20;58.50
44729;DHT22;30457;53.590;9.922;2022-12-18T05:01:00;-2.20;58.60
44729;DHT22;30457;53.590;9.922;2022-12-18T05:05:25;-2.20;58.70
44729;DHT22;30457;53.590;9.922;2022-12-18T05:09:51;-2.20;58.80
44729;DHT22;30457;53.590;9.922;2022-12-18T05:14:16;-2.30;58.80
44729;DHT22;30457;53.590;9.922;2022-12-18T05:18:42;-2.30;58.70
44729;DHT22;30457;53.590;9.922;2022-12-18T05:23:08;-2.30;58.70
44729;DHT22;30457;53.590;9.922;2022-12-18T05:27:33;-2.20;58.90
44729;DHT22;30457;53.590;9.922;2022-12-18T05:31:59;-2.30;59.00
44729;DHT22;30457;53.590;9.922;2022-12-18T05:36:24;-2.20;59.10
44729;DHT22;30457;53.590;9.922;2022-12-18T05:40:51;-2.20;59.00
44729;DHT22;30457;53.590;9.922;2022-12-18T05:45:17;-2.20;58.90
44729;DHT22;30457;53.590;9.922;2022-12-18T05:49:42;-2.20;58.90
44729;DHT22;30457;53.590;9.922;2022-12-18T05:54:08;-2.20;58.90
44729;DHT22;30457;53.590;9.922;2022-12-18T05:58:34;-2.20;59.00
44729;DHT22;30457;53.590;9.922;2022-12-18T06:03:00;-2.20;59.00
44729;DHT22;30457;53.590;9.922;2022-12-18T06:07:25;-2.20;59.00
44729;DHT22;30457;53.590;9.922;2022-12-18T06:11:52;-2.30;59.00
44729;DHT22;30457;53.590;9.922;2022-12-18T06:16:17;-2.20;59.10
44729;DHT22;30457;53.590;9.922;2022-12-18T06:20:43;-2.20;59.10
44729;DHT22;30457;53.590;9.922;2022-12-18T06:25:08;-2.20;59.00
44729;DHT22;30457;53.590;9.922;2022-12-18T06:29:34;-2.30;58.90
44729;DHT22;30457;53.590;9.922;2022-12-18T06:34:02;-2.30;59.00
44729;DHT22;30457;53.590;9.922;2022-12-18T06:38:28;-2.30;58.90
44729;DHT22;30457;53.590;9.922;2022-12-18T06:42:54;-2.30;58.90
44729;DHT22;30457;53.590;9.922;2022-12-18T06:47:19;-2.30;58.90
44729;DHT22;30457;53.590;9.922;2022-12-18T06:51:45;-2.30;59.00
44729;DHT22;30457;53.590;9.922;2022-12-18T06:56:10;-2.30;59.00
44729;DHT22;30457;53.590;9.922;2022-12-18T07:00:36;-2.30;59.00
44729;DHT22;30457;53.590;9.922;2022-12-18T07:05:01;-2.30;59.10
44729;DHT22;30457;53.590;9.922;2022-12-18T07:09:27;-2.30;59.10
44729;DHT22;30457;53.590;9.922;2022-12-18T07:13:52;-2.30;59.10
44729;DHT22;30457;53.590;9.922;2022-12-18T07:18:18;-2.30;59.10
44729;DHT22;30457;53.590;9.922;2022-12-18T07:22:44;-2.30;59.20
44729;DHT22;30457;53.590;9.922;2022-12-18T07:27:09;-2.30;59.10
44729;DHT22;30457;53.590;9.922;2022-12-18T07:31:35;-2.30;59.20
44729;DHT22;30457;53.590;9.922;2022-12-18T07:36:02;-2.30;59.20
44729;DHT22;30457;53.590;9.922;2022-12-18T07:40:28;-2.30;59.30
44729;DHT22;30457;53.590;9.922;2022-12-18T07:44:54;-2.30;59.30
44729;DHT22;30457;53.590;9.922;2022-12-18T07:49:19;-2.20;59.40
44729;DHT22;30457;53.590;9.922;2022-12-18T07:53:45;-2.20;59.40
44729;DHT22;30457;53.590;9.922;2022-12-18T07:58:11;-2.20;59.50
44729;DHT22;30457;53.590;9.922;2022-12-18T08:02:37;-2.20;59.40
44729;DHT22;30457;53.590;9.922;2022-12-18T08:07:02;-2.20;59.50
44729;DHT22;30457;53.590;9.922;2022-12-18T08:11:28;-2.10;59.60
44729;DHT22;30457;53.590;9.922;2022-12-18T08:16:04;-2.10;59.70
44729;DHT22;30457;53.590;9.922;2022-12-18T08:20:30;-2.10;59.80
44729;DHT22;30457;53.590;9.922;2022-12-18T08:24:56;-2.00;59.80
44729;DHT22;30457;53.590;9.922;2022-12-18T08:29:21;-1.90;59.90
44729;DHT22;30457;53.590;9.922;2022-12-18T08:33:52;-1.90;60.00
44729;DHT22;30457;53.590;9.922;2022-12-18T08:38:17;-1.80;60.00
44729;DHT22;30457;53.590;9.922;2022-12-18T08:42:43;-1.70;60.10
44729;DHT22;30457;53.590;9.922;2022-12-18T08:47:27;-1.70;60.10
44729;DHT22;30457;53.590;9.922;2022-12-18T08:51:55;-1.60;60.20
44729;DHT22;30457;53.590;9.922;2022-12-18T08:56:22;-1.50;60.20
44729;DHT22;30457;53.590;9.922;2022-12-18T09:00:47;-1.40;60.30
44729;DHT22;30457;53.590;9.922;2022-12-18T09:05:13;-1.30;60.30
44729;DHT22;30457;53.590;9.922;2022-12-18T09:09:39;-1.20;60.30
44729;DHT22;30457;53.590;9.922;2022-12-18T09:14:04;-1.10;60.30
44729;DHT22;30457;53.590;9.922;2022-12-18T09:18:30;-1.00;60.20
44729;DHT22;30457;53.590;9.922;2022-12-18T09:22:56;-0.90;60.30
44729;DHT22;30457;53.590;9.922;2022-12-18T09:27:21;-0.80;60.20
44729;DHT22;30457;53.590;9.922;2022-12-18T09:31:47;-0.70;60.10
44729;DHT22;30457;53.590;9.922;2022-12-18T09:36:15;-0.60;60.10
44729;DHT22;30457;53.590;9.922;2022-12-18T09:40:44;-0.50;60.00
44729;DHT22;30457;53.590;9.922;2022-12-18T09:45:13;-0.40;59.90
44729;DHT22;30457;53.590;9.922;2022-12-18T09:49:46;-0.30;59.90
44729;DHT22;30457;53.590;9.922;2022-12-18T09:54:30;-0.20;60.00
44729;DHT22;30457;53.590;9.922;2022-12-18T09:59:01;0.00;60.00
44729;DHT22;30457;53.590;9.922;2022-12-18T10:03:27;0.10;59.90
44729;DHT22;30457;53.590;9.922;2022-12-18T10:08:05;0.20;59.80
44729;DHT22;30457;53.590;9.922;2022-12-18T10:12:42;0.30;59.70
44729;DHT22;30457;53.590;9.922;2022-12-18T10:22:16;0.50;59.50
44729;DHT22;30457;53.590;9.922;2022-12-18T10:26:44;0.60;59.40
44729;DHT22;30457;53.590;9.922;2022-12-18T10:31:16;0.70;59.40
44729;DHT22;30457;53.590;9.922;2022-12-18T10:35:43;0.80;59.20
44729;DHT22;30457;53.590;9.922;2022-12-18T10:40:15;0.80;59.00
44729;DHT22;30457;53.590;9.922;2022-12-18T10:44:41;0.90;59.00
44729;DHT22;30457;53.590;9.922;2022-12-18T10:49:36;1.00;59.00
44729;DHT22;30457;53.590;9.922;2022-12-18T10:54:05;1.00;58.80
44729;DHT22;30457;53.590;9.922;2022-12-18T10:58:34;1.10;59.00
44729;DHT22;30457;53.590;9.922;2022-12-18T11:03:00;1.20;59.00
44729;DHT22;30457;53.590;9.922;2022-12-18T11:07:26;1.30;59.00
44729;DHT22;30457;53.590;9.922;2022-12-18T11:12:19;1.40;59.00
44729;DHT22;30457;53.590;9.922;2022-12-18T11:16:49;1.50;58.70
44729;DHT22;30457;53.590;9.922;2022-12-18T11:21:15;1.50;58.60
44729;DHT22;30457;53.590;9.922;2022-12-18T11:25:51;1.60;58.50
44729;DHT22;30457;53.590;9.922;2022-12-18T11:30:24;1.70;58.30
44729;DHT22;30457;53.590;9.922;2022-12-18T11:35:00;1.70;58.30
44729;DHT22;30457;53.590;9.922;2022-12-18T11:39:43;1.80;58.20
44729;DHT22;30457;53.590;9.922;2022-12-18T11:44:15;1.80;58.10
44729;DHT22;30457;53.590;9.922;2022-12-18T11:53:15;1.90;58.10
44729;DHT22;30457;53.590;9.922;2022-12-18T11:57:52;2.00;58.30
44729;DHT22;30457;53.590;9.922;2022-12-18T12:03:04;2.10;58.10
44729;DHT22;30457;53.590;9.922;2022-12-18T12:07:51;2.20;57.90
44729;DHT22;30457;53.590;9.922;2022-12-18T12:12:30;2.20;58.30
44729;DHT22;30457;53.590;9.922;2022-12-18T12:17:35;2.30;58.00
44729;DHT22;30457;53.590;9.922;2022-12-18T12:27:26;2.30;57.60
44729;DHT22;30457;53.590;9.922;2022-12-18T12:41:23;2.50;57.50
44729;DHT22;30457;53.590;9.922;2022-12-18T12:46:10;2.50;57.40
44729;DHT22;30457;53.590;9.922;2022-12-18T12:50:37;2.60;57.50
44729;DHT22;30457;53.590;9.922;2022-12-18T12:55:06;2.60;57.40
44729;DHT22;30457;53.590;9.922;2022-12-18T13:04:34;2.70;57.20
44729;DHT22;30457;53.590;9.922;2022-12-18T13:09:02;2.80;57.10
44729;DHT22;30457;53.590;9.922;2022-12-18T13:13:48;2.80;57.10
44729;DHT22;30457;53.590;9.922;2022-12-18T13:18:24;2.80;56.70
44729;DHT22;30457;53.590;9.922;2022-12-18T13:22:50;2.90;56.60
44729;DHT22;30457;53.590;9.922;2022-12-18T13:27:46;2.90;56.60
44729;DHT22;30457;53.590;9.922;2022-12-18T13:32:23;2.90;56.20
44729;DHT22;30457;53.590;9.922;2022-12-18T13:36:50;2.90;56.30
44729;DHT22;30457;53.590;9.922;2022-12-18T13:41:27;2.80;56.20
44729;DHT22;30457;53.590;9.922;2022-12-18T13:46:29;2.80;55.90
44729;DHT22;30457;53.590;9.922;2022-12-18T13:51:05;2.80;55.70
44729;DHT22;30457;53.590;9.922;2022-12-18T13:55:31;2.70;55.90
44729;DHT22;30457;53.590;9.922;2022-12-18T13:59:58;2.70;56.10
44729;DHT22;30457;53.590;9.922;2022-12-18T14:04:27;2.60;56.00
44729;DHT22;30457;53.590;9.922;2022-12-18T14:08:53;2.60;55.90
44729;DHT22;30457;53.590;9.922;2022-12-18T14:13:28;2.50;55.80
44729;DHT22;30457;53.590;9.922;2022-12-18T14:17:59;2.50;55.70
44729;DHT22;30457;53.590;9.922;2022-12-18T14:22:27;2.40;55.90
44729;DHT22;30457;53.590;9.922;2022-12-18T14:26:56;2.40;55.90
44729;DHT22;30457;53.590;9.922;2022-12-18T14:31:37;2.30;56.00
44729;DHT22;30457;53.590;9.922;2022-12-18T14:36:04;2.30;55.90
44729;DHT22;30457;53.590;9.922;2022-12-18T14:40:30;2.20;55.70
44729;DHT22;30457;53.590;9.922;2022-12-18T14:49:59;2.10;55.70
44729;DHT22;30457;53.590;9.922;2022-12-18T14:54:26;2.00;56.00
44729;DHT22;30457;53.590;9.922;2022-12-18T14:58:57;1.90;55.90
44729;DHT22;30457;53.590;9.922;2022-12-18T15:03:23;1.90;56.00
44729;DHT22;30457;53.590;9.922;2022-12-18T15:07:51;1.80;56.10
44729;DHT22;30457;53.590;9.922;2022-12-18T15:12:39;1.80;56.10
44729;DHT22;30457;53.590;9.922;2022-12-18T15:17:14;1.70;56.00
44729;DHT22;30457;53.590;9.922;2022-12-18T15:21:42;1.70;56.20
44729;DHT22;30457;53.590;9.922;2022-12-18T15:26:09;1.60;56.20
44729;DHT22;30457;53.590;9.922;2022-12-18T15:30:35;1.60;56.20
44729;DHT22;30457;53.590;9.922;2022-12-18T15:35:22;1.50;56.30
44729;DHT22;30457;53.590;9.922;2022-12-18T15:39:47;1.50;56.40
44729;DHT22;30457;53.590;9.922;2022-12-18T15:44:23;1.40;56.50
44729;DHT22;30457;53.590;9.922;2022-12-18T15:48:54;1.40;56.50
44729;DHT22;30457;53.590;9.922;2022-12-18T15:53:20;1.40;56.70
44729;DHT22;30457;53.590;9.922;2022-12-18T15:57:46;1.40;56.80
44729;DHT22;30457;53.590;9.922;2022-12-18T16:02:16;1.30;56.90
44729;DHT22;30457;53.590;9.922;2022-12-18T16:06:42;1.30;57.10
44729;DHT22;30457;53.590;9.922;2022-12-18T16:11:27;1.30;57.00
44729;DHT22;30457;53.590;9.922;2022-12-18T16:16:08;1.30;57.10
44729;DHT22;30457;53.590;9.922;2022-12-18T16:20:34;1.30;57.20
44729;DHT22;30457;53.590;9.922;2022-12-18T16:24:59;1.30;57.20
44729;DHT22;30457;53.590;9.922;2022-12-18T16:29:26;1.30;57.30
44729;DHT22;30457;53.590;9.922;2022-12-18T16:38:40;1.30;57.30
44729;DHT22;30457;53.590;9.922;2022-12-18T16:43:06;1.30;57.30
44729;DHT22;30457;53.590;9.922;2022-12-18T16:47:32;1.30;57.30
44729;DHT22;30457;53.590;9.922;2022-12-18T16:51:58;1.30;57.40
44729;DHT22;30457;53.590;9.922;2022-12-18T16:56:24;1.30;57.40
44729;DHT22;30457;53.590;9.922;2022-12-18T17:00:49;1.30;57.40
44729;DHT22;30457;53.590;9.922;2022-12-18T17:05:15;1.20;57.30
44729;DHT22;30457;53.590;9.922;2022-12-18T17:09:40;1.20;57.40
44729;DHT22;30457;53.590;9.922;2022-12-18T17:14:09;1.20;57.40
44729;DHT22;30457;53.590;9.922;2022-12-18T17:18:35;1.20;57.50
44729;DHT22;30457;53.590;9.922;2022-12-18T17:23:01;1.20;57.50
44729;DHT22;30457;53.590;9.922;2022-12-18T17:27:27;1.20;57.60
44729;DHT22;30457;53.590;9.922;2022-12-18T17:31:52;1.20;57.60
44729;DHT22;30457;53.590;9.922;2022-12-18T17:36:18;1.20;57.50
44729;DHT22;30457;53.590;9.922;2022-12-18T17:40:44;1.20;57.60
44729;DHT22;30457;53.590;9.922;2022-12-18T17:45:10;1.20;57.60
44729;DHT22;30457;53.590;9.922;2022-12-18T17:49:35;1.20;57.60
44729;DHT22;30457;53.590;9.922;2022-12-18T17:54:01;1.20;57.60
44729;DHT22;30457;53.590;9.922;2022-12-18T17:58:27;1.20;57.60
44729;DHT22;30457;53.590;9.922;2022-12-18T18:02:53;1.20;57.50
44729;DHT22;30457;53.590;9.922;2022-12-18T18:07:19;1.20;57.50
44729;DHT22;30457;53.590;9.922;2022-12-18T18:11:44;1.30;57.60
44729;DHT22;30457;53.590;9.922;2022-12-18T18:16:30;1.20;57.50
44729;DHT22;30457;53.590;9.922;2022-12-18T18:20:56;1.20;57.60
44729;DHT22;30457;53.590;9.922;2022-12-18T18:25:21;1.20;57.60
44729;DHT22;30457;53.590;9.922;2022-12-18T18:29:48;1.20;57.60
44729;DHT22;30457;53.590;9.922;2022-12-18T18:34:18;1.20;57.60
44729;DHT22;30457;53.590;9.922;2022-12-18T18:38:44;1.20;57.60
44729;DHT22;30457;53.590;9.922;2022-12-18T18:43:10;1.20;57.60
44729;DHT22;30457;53.590;9.922;2022-12-18T18:47:35;1.20;57.60
44729;DHT22;30457;53.590;9.922;2022-12-18T18:52:01;1.20;57.60
44729;DHT22;30457;53.590;9.922;2022-12-18T18:56:27;1.20;57.60
44729;DHT22;30457;53.590;9.922;2022-12-18T19:00:57;1.20;57.60
44729;DHT22;30457;53.590;9.922;2022-12-18T19:05:22;1.20;57.50
44729;DHT22;30457;53.590;9.922;2022-12-18T19:09:48;1.30;57.60
44729;DHT22;30457;53.590;9.922;2022-12-18T19:14:16;1.20;57.60
44729;DHT22;30457;53.590;9.922;2022-12-18T19:18:42;1.20;57.60
44729;DHT22;30457;53.590;9.922;2022-12-18T19:23:07;1.30;57.60
44729;DHT22;30457;53.590;9.922;2022-12-18T19:27:33;1.30;57.60
44729;DHT22;30457;53.590;9.922;2022-12-18T19:32:03;1.30;57.60
44729;DHT22;30457;53.590;9.922;2022-12-18T19:36:29;1.30;57.50
44729;DHT22;30457;53.590;9.922;2022-12-18T19:40:55;1.40;57.50
44729;DHT22;30457;53.590;9.922;2022-12-18T19:45:20;1.40;57.40
44729;DHT22;30457;53.590;9.922;2022-12-18T19:49:46;1.40;57.40
44729;DHT22;30457;53.590;9.922;2022-12-18T19:54:11;1.40;57.40
44729;DHT22;30457;53.590;9.922;2022-12-18T19:58:37;1.40;57.30
44729;DHT22;30457;53.590;9.922;2022-12-18T20:03:03;1.40;57.30
44729;DHT22;30457;53.590;9.922;2022-12-18T20:07:29;1.40;57.30
44729;DHT22;30457;53.590;9.922;2022-12-18T20:11:54;1.40;57.30
44729;DHT22;30457;53.590;9.922;2022-12-18T20:16:20;1.40;57.20
44729;DHT22;30457;53.590;9.922;2022-12-18T20:20:45;1.40;57.20
44729;DHT22;30457;53.590;9.922;2022-12-18T20:25:11;1.50;57.20
44729;DHT22;30457;53.590;9.922;2022-12-18T20:29:38;1.50;57.20
44729;DHT22;30457;53.590;9.922;2022-12-18T20:34:03;1.50;57.10
44729;DHT22;30457;53.590;9.922;2022-12-18T20:38:29;1.50;57.10
44729;DHT22;30457;53.590;9.922;2022-12-18T20:42:55;1.50;57.00
44729;DHT22;30457;53.590;9.922;2022-12-18T20:47:20;1.50;57.00
44729;DHT22;30457;53.590;9.922;2022-12-18T20:51:49;1.50;57.00
44729;DHT22;30457;53.590;9.922;2022-12-18T20:56:17;1.50;56.90
44729;DHT22;30457;53.590;9.922;2022-12-18T21:00:43;1.60;57.00
44729;DHT22;30457;53.590;9.922;2022-12-18T21:05:09;1.60;57.10
44729;DHT22;30457;53.590;9.922;2022-12-18T21:09:35;1.60;57.10
44729;DHT22;30457;53.590;9.922;2022-12-18T21:14:12;1.60;56.90
44729;DHT22;30457;53.590;9.922;2022-12-18T21:18:38;1.60;56.90
44729;DHT22;30457;53.590;9.922;2022-12-18T21:23:04;1.60;57.00
44729;DHT22;30457;53.590;9.922;2022-12-18T21:27:31;1.60;56.90
44729;DHT22;30457;53.590;9.922;2022-12-18T21:31:56;1.60;57.00
44729;DHT22;30457;53.590;9.922;2022-12-18T21:36:22;1.60;57.00
44729;DHT22;30457;53.590;9.922;2022-12-18T21:40:48;1.70;57.00
44729;DHT22;30457;53.590;9.922;2022-12-18T21:45:13;1.70;57.00
44729;DHT22;30457;53.590;9.922;2022-12-18T21:49:39;1.70;57.00
44729;DHT22;30457;53.590;9.922;2022-12-18T21:54:04;1.70;57.00
44729;DHT22;30457;53.590;9.922;2022-12-18T21:58:30;1.70;56.90
44729;DHT22;30457;53.590;9.922;2022-12-18T22:02:56;1.70;56.90
44729;DHT22;30457;53.590;9.922;2022-12-18T22:07:21;1.70;56.90
44729;DHT22;30457;53.590;9.922;2022-12-18T22:11:48;1.80;57.00
44729;DHT22;30457;53.590;9.922;2022-12-18T22:16:14;1.80;56.90
44729;DHT22;30457;53.590;9.922;2022-12-18T22:20:39;1.80;56.90
44729;DHT22;30457;53.590;9.922;2022-12-18T22:25:05;1.80;57.00
44729;DHT22;30457;53.590;9.922;2022-12-18T22:29:30;1.80;56.90
44729;DHT22;30457;53.590;9.922;2022-12-18T22:34:15;1.90;57.00
44729;DHT22;30457;53.590;9.922;2022-12-18T22:38:41;1.90;56.90
44729;DHT22;30457;53.590;9.922;2022-12-18T22:43:06;1.90;56.90
44729;DHT22;30457;53.590;9.922;2022-12-18T22:47:32;1.90;56.90
44729;DHT22;30457;53.590;9.922;2022-12-18T22:51:57;1.90;56.90
44729;DHT22;30457;53.590;9.922;2022-12-18T22:56:23;1.90;56.90
44729;DHT22;30457;53.590;9.922;2022-12-18T23:00:48;2.00;56.90
44729;DHT22;30457;53.590;9.922;2022-12-18T23:05:14;2.00;56.80
44729;DHT22;30457;53.590;9.922;2022-12-18T23:09:40;2.00;56.80
44729;DHT22;30457;53.590;9.922;2022-12-18T23:14:05;2.00;56.80
44729;DHT22;30457;53.590;9.922;2022-12-18T23:18:31;2.00;56.70
44729;DHT22;30457;53.590;9.922;2022-12-18T23:22:57;2.00;56.70
44729;DHT22;30457;53.590;9.922;2022-12-18T23:27:22;2.00;57.20
44729;DHT22;30457;53.590;9.922;2022-12-18T23:31:48;2.00;56.70
44729;DHT22;30457;53.590;9.922;2022-12-18T23:36:14;2.10;56.70
44729;DHT22;30457;53.590;9.922;2022-12-18T23:40:40;2.10;56.70
44729;DHT22;30457;53.590;9.922;2022-12-18T23:45:07;2.10;56.70
44729;DHT22;30457;53.590;9.922;2022-12-18T23:49:32;2.10;56.70
44729;DHT22;30457;53.590;9.922;2022-12-18T23:53:59;2.10;56.70
44729;DHT22;30457;53.590;9.922;2022-12-18T23:58:25;2.10;56.70
